createdAt,value
2018-01-18T00:00:03.549Z,84.42
2018-01-18T00:01:03.502Z,84.74
2018-01-18T00:02:03.452Z,84.61
2018-01-18T00:03:03.402Z,84.80
2018-01-18T00:04:03.354Z,84.99
2018-01-18T00:05:03.305Z,85.31
2018-01-18T00:06:03.254Z,85.13
2018-01-18T00:07:03.203Z,85.31
2018-01-18T00:08:03.158Z,84.74
2018-01-18T00:09:03.109Z,84.65
2018-01-18T00:10:03.061Z,84.46
2018-01-18T00:11:03.017Z,84.55
2018-01-18T00:12:02.961Z,84.55
2018-01-18T00:13:02.917Z,84.74
2018-01-18T00:14:02.864Z,84.32
2018-01-18T00:15:02.815Z,85.41
2018-01-18T00:16:02.767Z,84.84
2018-01-18T00:17:02.717Z,85.13
2018-01-18T00:18:02.671Z,85.03
2018-01-18T00:19:02.618Z,85.41
2018-01-18T00:20:02.568Z,85.27
2018-01-18T00:21:02.522Z,85.17
2018-01-18T00:22:02.474Z,85.22
2018-01-18T00:23:02.425Z,85.03
2018-01-18T00:24:02.375Z,85.41
2018-01-18T00:25:02.326Z,85.69
2018-01-18T00:26:02.282Z,85.36
2018-01-18T00:27:02.229Z,85.41
2018-01-18T00:28:02.183Z,85.03
2018-01-18T00:29:02.132Z,85.17
2018-01-18T00:30:02.082Z,85.17
2018-01-18T00:31:02.034Z,85.50
2018-01-18T00:32:01.986Z,85.27
2018-01-18T00:33:01.936Z,85.08
2018-01-18T00:34:01.889Z,84.80
2018-01-18T00:35:01.839Z,85.46
2018-01-18T00:36:01.791Z,85.60
2018-01-18T00:37:01.745Z,85.60
2018-01-18T00:38:01.695Z,85.46
2018-01-18T00:39:01.641Z,85.55
2018-01-18T00:40:01.596Z,85.31
2018-01-18T00:41:01.550Z,85.41
2018-01-18T00:42:01.498Z,85.17
2018-01-18T00:43:01.451Z,84.74
2018-01-18T00:44:01.400Z,85.41
2018-01-18T00:45:01.360Z,85.17
2018-01-18T00:46:01.302Z,85.31
2018-01-18T00:47:01.250Z,85.41
2018-01-18T00:48:01.203Z,85.22
2018-01-18T00:49:01.154Z,85.22
2018-01-18T00:50:01.107Z,85.03
2018-01-18T00:51:01.058Z,85.41
2018-01-18T00:52:01.081Z,85.31
2018-01-18T00:53:00.958Z,85.41
2018-01-18T00:54:00.915Z,85.50
2018-01-18T00:55:00.863Z,85.22
2018-01-18T00:56:00.813Z,85.31
2018-01-18T00:57:00.768Z,85.41
2018-01-18T00:58:00.716Z,85.50
2018-01-18T00:59:00.667Z,86.16
2018-01-18T01:00:00.615Z,86.26
2018-01-18T01:01:00.571Z,86.16
2018-01-18T01:02:00.521Z,85.88
2018-01-18T01:03:00.473Z,85.03
2018-01-18T01:04:00.423Z,85.69
2018-01-18T01:05:00.373Z,85.69
2018-01-18T01:06:00.325Z,85.88
2018-01-18T01:07:00.280Z,85.50
2018-01-18T01:08:00.228Z,85.41
2018-01-18T01:09:00.179Z,85.97
2018-01-18T01:10:00.132Z,85.50
2018-01-18T01:11:00.080Z,85.97
2018-01-18T01:12:00.037Z,86.45
2018-01-18T01:12:59.985Z,86.55
2018-01-18T01:13:59.936Z,86.64
2018-01-18T01:14:59.888Z,86.55
2018-01-18T01:15:59.838Z,86.64
2018-01-18T01:16:59.790Z,86.55
2018-01-18T01:17:59.740Z,86.55
2018-01-18T01:18:59.694Z,86.45
2018-01-18T01:19:59.646Z,86.16
2018-01-18T01:20:59.598Z,86.07
2018-01-18T01:21:59.545Z,86.12
2018-01-18T01:22:59.497Z,86.35
2018-01-18T01:23:59.449Z,86.31
2018-01-18T01:24:59.399Z,86.16
2018-01-18T01:25:59.406Z,86.55
2018-01-18T01:26:59.301Z,87.02
2018-01-18T01:27:59.256Z,86.74
2018-01-18T01:28:59.204Z,86.83
2018-01-18T01:29:59.156Z,86.26
2018-01-18T01:30:59.107Z,87.02
2018-01-18T01:31:59.058Z,87.12
2018-01-18T01:32:59.009Z,87.02
2018-01-18T01:33:58.961Z,87.02
2018-01-18T01:34:58.911Z,86.93
2018-01-18T01:35:58.863Z,87.40
2018-01-18T01:36:58.814Z,86.83
2018-01-18T01:37:58.797Z,87.21
2018-01-18T01:38:58.719Z,87.02
2018-01-18T01:39:58.672Z,86.93
2018-01-18T01:40:58.622Z,87.59
2018-01-18T01:41:58.574Z,87.40
2018-01-18T01:42:58.526Z,87.59
2018-01-18T01:43:58.475Z,87.77
2018-01-18T01:44:58.428Z,87.97
2018-01-18T01:45:58.377Z,87.87
2018-01-18T01:46:58.327Z,87.77
2018-01-18T01:47:58.284Z,88.06
2018-01-18T01:48:58.233Z,88.44
2018-01-18T01:49:58.187Z,87.87
2018-01-18T01:50:58.133Z,88.06
2018-01-18T01:51:58.087Z,88.25
2018-01-18T01:52:58.034Z,87.87
2018-01-18T01:53:57.992Z,88.63
2018-01-18T01:54:57.944Z,88.25
2018-01-18T01:55:57.890Z,88.73
2018-01-18T01:56:57.843Z,88.44
2018-01-18T01:57:57.791Z,88.35
2018-01-18T01:58:57.747Z,88.25
2018-01-18T01:59:57.700Z,88.73
2018-01-18T02:00:57.653Z,88.44
2018-01-18T02:01:57.601Z,88.82
2018-01-18T02:02:57.555Z,88.44
2018-01-18T02:03:57.506Z,88.54
2018-01-18T02:04:57.454Z,88.16
2018-01-18T02:05:57.405Z,88.44
2018-01-18T02:06:57.362Z,88.92
2018-01-18T02:07:57.311Z,88.82
2018-01-18T02:08:57.263Z,88.73
2018-01-18T02:09:57.214Z,88.35
2018-01-18T02:10:57.162Z,88.82
2018-01-18T02:11:57.112Z,88.63
2018-01-18T02:12:57.066Z,88.44
2018-01-18T02:13:57.016Z,88.44
2018-01-18T02:14:56.969Z,88.35
2018-01-18T02:15:56.919Z,88.54
2018-01-18T02:16:56.869Z,88.92
2018-01-18T02:17:56.826Z,88.73
2018-01-18T02:18:56.774Z,88.63
2018-01-18T02:19:56.725Z,88.54
2018-01-18T02:20:56.674Z,88.92
2018-01-18T02:21:56.640Z,88.54
2018-01-18T02:22:56.579Z,89.29
2018-01-18T02:23:56.528Z,88.92
2018-01-18T02:24:56.480Z,88.92
2018-01-18T02:25:56.432Z,89.11
2018-01-18T02:26:56.386Z,89.29
2018-01-18T02:27:56.335Z,89.01
2018-01-18T02:28:56.288Z,88.92
2018-01-18T02:29:56.239Z,88.82
2018-01-18T02:30:56.192Z,88.82
2018-01-18T02:31:56.140Z,88.82
2018-01-18T02:32:56.091Z,88.92
2018-01-18T02:33:56.047Z,89.01
2018-01-18T02:34:55.993Z,88.92
2018-01-18T02:35:55.993Z,89.01
2018-01-18T02:36:55.901Z,89.20
2018-01-18T02:37:55.847Z,89.01
2018-01-18T02:38:55.800Z,88.82
2018-01-18T02:39:55.750Z,88.82
2018-01-18T02:40:55.702Z,88.92
2018-01-18T02:41:55.654Z,88.73
2018-01-18T02:42:55.604Z,88.82
2018-01-18T02:43:55.556Z,89.01
2018-01-18T02:44:55.507Z,89.01
2018-01-18T02:45:55.461Z,89.11
2018-01-18T02:46:55.419Z,89.39
2018-01-18T02:47:55.360Z,88.92
2018-01-18T02:48:55.318Z,89.01
2018-01-18T02:49:55.268Z,88.82
2018-01-18T02:50:55.214Z,88.92
2018-01-18T02:51:55.167Z,89.20
2018-01-18T02:52:55.118Z,89.58
2018-01-18T02:53:55.076Z,89.96
2018-01-18T02:54:55.020Z,90.24
2018-01-18T02:55:54.971Z,90.15
2018-01-18T02:56:54.923Z,90.53
2018-01-18T02:57:54.875Z,90.53
2018-01-18T02:58:54.825Z,91.28
2018-01-18T02:59:54.778Z,90.53
2018-01-18T03:00:54.729Z,90.24
2018-01-18T03:01:54.684Z,90.81
2018-01-18T03:02:54.631Z,90.43
2018-01-18T03:03:54.583Z,90.62
2018-01-18T03:04:54.538Z,91.38
2018-01-18T03:05:54.485Z,91.28
2018-01-18T03:06:54.437Z,91.85
2018-01-18T03:07:54.388Z,92.33
2018-01-18T03:08:54.340Z,92.14
2018-01-18T03:09:54.293Z,92.42
2018-01-18T03:10:54.241Z,92.52
2018-01-18T03:11:54.193Z,92.33
2018-01-18T03:12:54.144Z,92.14
2018-01-18T03:13:54.098Z,92.71
2018-01-18T03:14:54.048Z,91.95
2018-01-18T03:15:54.000Z,92.33
2018-01-18T03:16:53.953Z,92.61
2018-01-18T03:17:53.903Z,93.08
2018-01-18T03:18:53.855Z,93.56
2018-01-18T03:19:53.809Z,93.37
2018-01-18T03:20:53.756Z,92.71
2018-01-18T03:21:53.711Z,92.90
2018-01-18T03:22:53.659Z,92.71
2018-01-18T03:23:53.612Z,92.71
2018-01-18T03:24:53.562Z,93.46
2018-01-18T03:25:53.517Z,93.46
2018-01-18T03:26:53.471Z,93.08
2018-01-18T03:27:53.422Z,93.37
2018-01-18T03:28:53.369Z,94.04
2018-01-18T03:29:53.317Z,93.37
2018-01-18T03:30:53.269Z,92.99
2018-01-18T03:31:53.224Z,93.84
2018-01-18T03:32:53.173Z,93.84
2018-01-18T03:33:53.126Z,94.32
2018-01-18T03:34:53.083Z,94.32
2018-01-18T03:35:53.029Z,94.51
2018-01-18T03:36:52.980Z,94.23
2018-01-18T03:37:52.931Z,94.32
2018-01-18T03:38:52.882Z,94.32
2018-01-18T03:39:52.835Z,93.94
2018-01-18T03:40:52.790Z,94.42
2018-01-18T03:41:52.734Z,94.23
2018-01-18T03:42:52.688Z,93.94
2018-01-18T03:43:52.637Z,94.23
2018-01-18T03:44:52.590Z,94.23
2018-01-18T03:45:52.545Z,94.23
2018-01-18T03:46:52.493Z,94.60
2018-01-18T03:47:52.444Z,94.42
2018-01-18T03:48:52.394Z,94.70
2018-01-18T03:49:52.348Z,95.26
2018-01-18T03:50:52.298Z,94.98
2018-01-18T03:51:52.246Z,94.98
2018-01-18T03:52:52.202Z,95.17
2018-01-18T03:53:52.158Z,95.26
2018-01-18T03:54:52.104Z,95.93
2018-01-18T03:55:52.053Z,95.55
2018-01-18T03:56:52.007Z,95.65
2018-01-18T03:57:51.956Z,95.74
2018-01-18T03:58:51.906Z,96.12
2018-01-18T03:59:51.858Z,95.93
2018-01-18T04:00:51.808Z,95.65
2018-01-18T04:01:51.759Z,96.31
2018-01-18T04:02:51.711Z,96.59
2018-01-18T04:03:51.662Z,96.17
2018-01-18T04:04:51.618Z,96.07
2018-01-18T04:05:51.566Z,96.17
2018-01-18T04:06:51.516Z,96.41
2018-01-18T04:07:51.467Z,96.26
2018-01-18T04:08:51.417Z,96.64
2018-01-18T04:09:51.366Z,96.45
2018-01-18T04:10:51.320Z,96.73
2018-01-18T04:11:51.271Z,96.55
2018-01-18T04:12:51.221Z,96.07
2018-01-18T04:13:51.173Z,96.73
2018-01-18T04:14:51.126Z,96.36
2018-01-18T04:15:51.075Z,96.83
2018-01-18T04:16:51.024Z,97.02
2018-01-18T04:17:50.977Z,96.83
2018-01-18T04:18:50.925Z,97.02
2018-01-18T04:19:50.879Z,96.83
2018-01-18T04:20:50.826Z,96.92
2018-01-18T04:21:50.785Z,96.73
2018-01-18T04:22:50.730Z,96.55
2018-01-18T04:23:50.678Z,96.45
2018-01-18T04:24:50.632Z,96.73
2018-01-18T04:25:50.583Z,96.92
2018-01-18T04:26:50.533Z,96.73
2018-01-18T04:27:50.483Z,96.73
2018-01-18T04:28:50.438Z,96.83
2018-01-18T04:29:50.388Z,96.73
2018-01-18T04:30:50.336Z,97.59
2018-01-18T04:31:50.287Z,97.78
2018-01-18T04:32:50.244Z,98.16
2018-01-18T04:33:50.189Z,98.63
2018-01-18T04:34:50.137Z,98.25
2018-01-18T04:35:50.090Z,98.44
2018-01-18T04:36:50.041Z,98.25
2018-01-18T04:37:49.992Z,98.16
2018-01-18T04:38:49.940Z,98.25
2018-01-18T04:39:49.890Z,98.16
2018-01-18T04:40:49.843Z,98.44
2018-01-18T04:41:49.792Z,98.44
2018-01-18T04:42:49.741Z,98.63
2018-01-18T04:43:49.692Z,98.54
2018-01-18T04:44:49.645Z,98.58
2018-01-18T04:45:49.596Z,99.20
2018-01-18T04:46:49.545Z,99.20
2018-01-18T04:47:49.494Z,98.68
2018-01-18T04:48:49.446Z,98.82
2018-01-18T04:49:49.399Z,98.49
2018-01-18T04:50:49.354Z,99.24
2018-01-18T04:51:49.298Z,99.05
2018-01-18T04:52:49.246Z,98.96
2018-01-18T04:53:49.199Z,98.68
2018-01-18T04:54:49.150Z,99.05
2018-01-18T04:55:49.098Z,98.96
2018-01-18T04:56:49.051Z,99.33
2018-01-18T04:57:48.998Z,99.15
2018-01-18T04:58:48.953Z,99.90
2018-01-18T04:59:48.899Z,99.90
2018-01-18T05:00:48.851Z,99.81
2018-01-18T05:01:48.801Z,99.99
2018-01-18T05:02:48.753Z,99.99
2018-01-18T05:03:48.708Z,99.90
2018-01-18T05:04:48.657Z,99.33
2018-01-18T05:05:48.618Z,99.71
2018-01-18T05:06:48.559Z,99.99
2018-01-18T05:07:48.506Z,99.99
2018-01-18T05:08:48.458Z,99.99
2018-01-18T05:09:48.403Z,99.99
2018-01-18T05:10:48.354Z,99.99
2018-01-18T05:11:48.308Z,99.99
2018-01-18T05:12:48.257Z,99.99
2018-01-18T05:13:48.205Z,99.99
2018-01-18T05:14:48.153Z,99.99
2018-01-18T05:15:48.110Z,99.99
2018-01-18T05:16:48.060Z,99.99
2018-01-18T05:17:48.008Z,99.99
2018-01-18T05:18:47.956Z,99.99
2018-01-18T05:19:47.909Z,99.99
2018-01-18T05:20:47.858Z,99.99
2018-01-18T05:21:47.811Z,99.99
2018-01-18T05:22:47.758Z,99.99
2018-01-18T05:23:47.706Z,99.99
2018-01-18T05:24:47.659Z,99.99
2018-01-18T05:25:47.607Z,99.99
2018-01-18T05:26:47.566Z,99.99
2018-01-18T05:27:47.521Z,99.99
2018-01-18T05:28:47.464Z,99.99
2018-01-18T05:29:47.416Z,99.99
2018-01-18T05:30:47.359Z,99.99
2018-01-18T05:31:47.328Z,99.99
2018-01-18T05:32:47.265Z,99.99
2018-01-18T05:33:47.219Z,99.99
2018-01-18T05:34:47.163Z,99.99
2018-01-18T05:35:47.118Z,99.99
2018-01-18T05:36:47.070Z,99.99
2018-01-18T05:37:47.014Z,99.99
2018-01-18T05:38:46.965Z,99.99
2018-01-18T05:39:46.919Z,99.99
2018-01-18T05:40:46.866Z,99.99
2018-01-18T05:41:46.817Z,99.99
2018-01-18T05:42:46.771Z,99.99
2018-01-18T05:43:46.719Z,99.99
2018-01-18T05:44:46.667Z,99.99
2018-01-18T05:45:46.619Z,99.99
2018-01-18T05:46:46.576Z,99.99
2018-01-18T05:47:46.517Z,99.99
2018-01-18T05:48:46.472Z,99.99
2018-01-18T05:49:46.421Z,99.99
2018-01-18T05:50:46.375Z,99.99
2018-01-18T05:51:46.325Z,99.99
2018-01-18T05:52:46.274Z,99.99
2018-01-18T05:53:46.224Z,99.99
2018-01-18T05:54:46.175Z,99.99
2018-01-18T05:55:46.121Z,99.99
2018-01-18T05:56:46.075Z,99.99
2018-01-18T05:57:46.023Z,99.99
2018-01-18T05:58:46.025Z,99.99
2018-01-18T05:59:45.926Z,99.99
2018-01-18T06:00:45.875Z,99.99
2018-01-18T06:01:45.827Z,99.99
2018-01-18T06:02:49.077Z,99.99
2018-01-18T06:03:45.733Z,99.99
2018-01-18T06:04:45.679Z,99.99
2018-01-18T06:05:45.628Z,99.99
2018-01-18T06:06:45.581Z,99.99
2018-01-18T06:07:45.529Z,99.99
2018-01-18T06:08:45.480Z,99.99
2018-01-18T06:09:45.439Z,99.99
2018-01-18T06:10:45.393Z,99.99
2018-01-18T06:11:45.337Z,99.99
2018-01-18T06:12:45.288Z,99.99
2018-01-18T06:13:45.245Z,99.99
2018-01-18T06:14:45.187Z,99.99
2018-01-18T06:15:45.134Z,99.99
2018-01-18T06:16:45.088Z,99.99
2018-01-18T06:17:45.038Z,99.99
2018-01-18T06:18:44.993Z,99.99
2018-01-18T06:19:44.943Z,99.99
2018-01-18T06:20:44.892Z,99.99
2018-01-18T06:21:44.847Z,99.99
2018-01-18T06:22:44.792Z,99.99
2018-01-18T06:23:44.749Z,99.99
2018-01-18T06:24:44.695Z,99.99
2018-01-18T06:25:44.650Z,99.99
2018-01-18T06:26:44.597Z,99.99
2018-01-18T06:27:44.550Z,99.99
2018-01-18T06:28:44.498Z,99.99
2018-01-18T06:29:44.451Z,99.99
2018-01-18T06:30:44.401Z,99.99
2018-01-18T06:31:44.352Z,99.99
2018-01-18T06:32:44.307Z,99.99
2018-01-18T06:33:44.256Z,99.99
2018-01-18T06:34:44.207Z,99.99
2018-01-18T06:35:44.160Z,99.99
2018-01-18T06:36:44.111Z,99.99
2018-01-18T06:37:44.065Z,99.99
2018-01-18T06:38:44.012Z,99.99
2018-01-18T06:39:43.967Z,99.99
2018-01-18T06:40:43.913Z,99.99
2018-01-18T06:41:43.869Z,99.99
2018-01-18T06:42:43.818Z,99.99
2018-01-18T06:43:43.768Z,99.99
2018-01-18T06:44:43.723Z,99.99
2018-01-18T06:45:43.676Z,99.99
2018-01-18T06:46:43.622Z,99.99
2018-01-18T06:47:43.576Z,99.99
2018-01-18T06:48:43.527Z,99.99
2018-01-18T06:49:43.482Z,99.99
2018-01-18T06:50:43.434Z,99.99
2018-01-18T06:51:43.420Z,99.99
2018-01-18T06:52:43.341Z,99.99
2018-01-18T06:53:43.286Z,99.99
2018-01-18T06:54:43.240Z,99.99
2018-01-18T06:55:43.190Z,99.99
2018-01-18T06:56:43.144Z,99.99
2018-01-18T06:57:43.092Z,99.99
2018-01-18T06:58:43.043Z,99.99
2018-01-18T06:59:43.002Z,99.99
2018-01-18T07:00:42.950Z,99.99
2018-01-18T07:01:42.900Z,99.99
2018-01-18T07:02:42.851Z,99.99
2018-01-18T07:03:42.804Z,99.99
2018-01-18T07:04:42.765Z,99.99
2018-01-18T07:05:42.716Z,99.99
2018-01-18T07:06:42.661Z,99.99
2018-01-18T07:07:42.614Z,99.99
2018-01-18T07:08:42.564Z,99.99
2018-01-18T07:09:42.516Z,99.99
2018-01-18T07:10:42.467Z,99.99
2018-01-18T07:11:42.425Z,99.99
2018-01-18T07:12:42.375Z,99.99
2018-01-18T07:13:42.329Z,99.99
2018-01-18T07:14:42.275Z,99.99
2018-01-18T07:15:42.230Z,99.99
2018-01-18T07:16:42.180Z,99.99
2018-01-18T07:17:42.134Z,99.99
2018-01-18T07:18:42.090Z,99.99
2018-01-18T07:19:42.039Z,99.99
2018-01-18T07:20:41.995Z,99.99
2018-01-18T07:21:41.948Z,99.99
2018-01-18T07:22:41.905Z,99.99
2018-01-18T07:23:41.848Z,99.99
2018-01-18T07:24:41.798Z,99.99
2018-01-18T07:25:41.752Z,99.99
2018-01-18T07:26:41.701Z,99.99
2018-01-18T07:27:41.661Z,99.99
2018-01-18T07:28:41.608Z,99.99
2018-01-18T07:29:41.565Z,99.99
2018-01-18T07:30:41.510Z,99.99
2018-01-18T07:31:41.467Z,99.99
2018-01-18T07:32:41.417Z,99.99
2018-01-18T07:33:41.369Z,99.99
2018-01-18T07:34:41.321Z,99.99
2018-01-18T07:35:41.273Z,99.99
2018-01-18T07:36:41.228Z,99.99
2018-01-18T07:37:41.179Z,99.99
2018-01-18T07:38:41.132Z,99.99
2018-01-18T07:39:41.082Z,99.99
2018-01-18T07:40:41.033Z,99.99
2018-01-18T07:41:40.991Z,99.99
2018-01-18T07:42:40.942Z,99.99
2018-01-18T07:43:40.891Z,99.99
2018-01-18T07:44:40.846Z,99.99
2018-01-18T07:45:40.800Z,99.99
2018-01-18T07:46:40.750Z,99.99
2018-01-18T07:47:40.702Z,99.99
2018-01-18T07:48:40.655Z,99.99
2018-01-18T07:49:40.608Z,99.99
2018-01-18T07:50:40.560Z,99.99
2018-01-18T07:51:40.511Z,99.99
2018-01-18T07:52:40.466Z,99.99
2018-01-18T07:53:40.418Z,99.99
2018-01-18T07:54:40.369Z,99.99
2018-01-18T07:55:40.325Z,99.99
2018-01-18T07:56:40.284Z,99.99
2018-01-18T07:57:40.230Z,99.83
2018-01-18T07:58:40.180Z,99.64
2018-01-18T07:59:40.136Z,99.92
2018-01-18T08:00:40.096Z,99.99
2018-01-18T08:01:40.041Z,99.99
2018-01-18T08:02:39.997Z,99.64
2018-01-18T08:03:39.944Z,99.78
2018-01-18T08:04:39.897Z,99.50
2018-01-18T08:05:39.850Z,99.40
2018-01-18T08:06:39.803Z,99.40
2018-01-18T08:07:39.758Z,98.93
2018-01-18T08:08:39.714Z,99.11
2018-01-18T08:09:39.706Z,98.64
2018-01-18T08:10:39.616Z,98.45
2018-01-18T08:11:39.576Z,98.26
2018-01-18T08:12:39.523Z,97.41
2018-01-18T08:13:39.476Z,97.50
2018-01-18T08:14:39.431Z,97.03
2018-01-18T08:15:39.380Z,97.64
2018-01-18T08:16:39.338Z,97.27
2018-01-18T08:17:39.305Z,97.27
2018-01-18T08:18:39.238Z,96.89
2018-01-18T08:19:39.191Z,96.03
2018-01-18T08:20:39.152Z,96.22
2018-01-18T08:21:39.097Z,95.17
2018-01-18T08:22:39.051Z,96.03
2018-01-18T08:23:39.005Z,95.65
2018-01-18T08:24:38.962Z,94.79
2018-01-18T08:25:38.910Z,94.51
2018-01-18T08:26:38.868Z,94.42
2018-01-18T08:27:38.818Z,94.51
2018-01-18T08:28:38.772Z,95.08
2018-01-18T08:29:38.726Z,95.08
2018-01-18T08:30:38.678Z,94.42
2018-01-18T08:31:38.635Z,94.98
2018-01-18T08:32:38.588Z,94.32
2018-01-18T08:33:38.538Z,94.22
2018-01-18T08:34:38.490Z,94.22
2018-01-18T08:35:38.445Z,93.94
2018-01-18T08:36:38.398Z,93.94
2018-01-18T08:37:38.353Z,94.27
2018-01-18T08:38:38.305Z,94.18
2018-01-18T08:39:38.261Z,93.23
2018-01-18T08:40:38.217Z,92.18
2018-01-18T08:41:38.166Z,91.61
2018-01-18T08:42:38.120Z,91.03
2018-01-18T08:43:38.079Z,90.66
2018-01-18T08:44:38.028Z,90.47
2018-01-18T08:45:37.984Z,91.03
2018-01-18T08:46:37.937Z,90.66
2018-01-18T08:47:37.892Z,90.75
2018-01-18T08:48:37.844Z,90.84
2018-01-18T08:49:37.804Z,90.75
2018-01-18T08:50:37.750Z,90.37
2018-01-18T08:51:37.706Z,90.37
2018-01-18T08:52:37.663Z,89.99
2018-01-18T08:53:37.614Z,89.65
2018-01-18T08:54:37.566Z,89.47
2018-01-18T08:55:37.521Z,89.23
2018-01-18T08:56:37.476Z,89.18
2018-01-18T08:57:37.430Z,88.85
2018-01-18T08:58:37.387Z,88.51
2018-01-18T08:59:37.333Z,88.42
2018-01-18T09:00:37.289Z,88.13
2018-01-18T09:01:37.244Z,88.13
2018-01-18T09:02:37.197Z,87.56
2018-01-18T09:03:37.157Z,87.65
2018-01-18T09:04:37.107Z,87.75
2018-01-18T09:05:37.059Z,87.85
2018-01-18T09:06:37.014Z,87.75
2018-01-18T09:07:36.969Z,86.80
2018-01-18T09:08:36.929Z,86.04
2018-01-18T09:09:36.875Z,85.66
2018-01-18T09:10:36.833Z,83.18
2018-01-18T09:11:36.787Z,81.37
2018-01-18T09:12:36.742Z,80.71
2018-01-18T09:13:36.694Z,79.38
2018-01-18T09:14:36.646Z,79.38
2018-01-18T09:15:36.600Z,78.99
2018-01-18T09:16:36.559Z,78.90
2018-01-18T09:17:36.512Z,78.33
2018-01-18T09:18:36.464Z,78.42
2018-01-18T09:19:36.417Z,77.19
2018-01-18T09:20:36.375Z,76.81
2018-01-18T09:21:36.328Z,75.85
2018-01-18T09:22:36.283Z,74.04
2018-01-18T09:23:36.236Z,74.75
2018-01-18T09:24:36.191Z,73.70
2018-01-18T09:25:36.145Z,72.90
2018-01-18T09:26:36.096Z,72.24
2018-01-18T09:27:36.051Z,71.98
2018-01-18T09:28:36.006Z,71.42
2018-01-18T09:29:35.963Z,70.84
2018-01-18T09:30:35.918Z,70.65
2018-01-18T09:31:35.876Z,70.94
2018-01-18T09:32:35.825Z,71.32
2018-01-18T09:33:35.779Z,70.65
2018-01-18T09:34:35.734Z,69.32
2018-01-18T09:35:35.690Z,70.18
2018-01-18T09:36:35.640Z,70.18
2018-01-18T09:37:35.597Z,69.42
2018-01-18T09:38:35.550Z,68.65
2018-01-18T09:39:35.509Z,69.89
2018-01-18T09:40:35.463Z,68.56
2018-01-18T09:41:35.428Z,68.65
2018-01-18T09:42:35.371Z,67.41
2018-01-18T09:43:35.324Z,68.18
2018-01-18T09:44:35.279Z,65.99
2018-01-18T09:45:35.231Z,66.66
2018-01-18T09:46:35.184Z,66.18
2018-01-18T09:47:35.143Z,65.23
2018-01-18T09:48:35.094Z,65.13
2018-01-18T09:49:35.050Z,63.99
2018-01-18T09:50:35.002Z,62.94
2018-01-18T09:51:34.958Z,62.85
2018-01-18T09:52:34.914Z,62.65
2018-01-18T09:53:34.867Z,62.43
2018-01-18T09:54:34.822Z,63.01
2018-01-18T09:55:34.782Z,63.29
2018-01-18T09:56:34.735Z,63.76
2018-01-18T09:57:34.690Z,63.67
2018-01-18T09:58:34.640Z,63.48
2018-01-18T09:59:34.597Z,63.67
2018-01-18T10:00:34.551Z,63.86
2018-01-18T10:01:34.505Z,64.05
2018-01-18T10:02:34.456Z,63.67
2018-01-18T10:03:34.417Z,64.43
2018-01-18T10:04:34.365Z,65.00
2018-01-18T10:05:34.325Z,64.81
2018-01-18T10:06:34.275Z,64.81
2018-01-18T10:07:34.271Z,65.48
2018-01-18T10:08:34.182Z,64.87
2018-01-18T10:09:34.138Z,64.97
2018-01-18T10:10:34.095Z,65.06
2018-01-18T10:11:34.045Z,65.25
2018-01-18T10:12:34.002Z,65.54
2018-01-18T10:13:33.954Z,65.06
2018-01-18T10:14:33.908Z,65.45
2018-01-18T10:15:33.866Z,64.97
2018-01-18T10:16:33.818Z,65.54
2018-01-18T10:17:33.774Z,64.97
2018-01-18T10:18:33.725Z,66.02
2018-01-18T10:19:33.680Z,66.11
2018-01-18T10:20:33.634Z,65.16
2018-01-18T10:21:33.589Z,66.30
2018-01-18T10:22:33.541Z,65.89
2018-01-18T10:23:33.496Z,65.22
2018-01-18T10:24:33.448Z,65.13
2018-01-18T10:25:33.406Z,65.51
2018-01-18T10:26:33.362Z,65.51
2018-01-18T10:27:33.316Z,65.22
2018-01-18T10:28:33.268Z,64.37
2018-01-18T10:29:33.221Z,65.03
2018-01-18T10:30:33.175Z,65.22
2018-01-18T10:31:33.163Z,65.22
2018-01-18T10:32:33.081Z,65.99
2018-01-18T10:33:33.038Z,66.36
2018-01-18T10:34:32.991Z,66.46
2018-01-18T10:35:32.943Z,66.55
2018-01-18T10:36:32.895Z,66.65
2018-01-18T10:37:32.851Z,66.14
2018-01-18T10:38:32.807Z,66.61
2018-01-18T10:39:32.761Z,65.76
2018-01-18T10:40:32.714Z,66.05
2018-01-18T10:41:32.665Z,66.90
2018-01-18T10:42:32.618Z,66.61
2018-01-18T10:43:32.574Z,67.19
2018-01-18T10:44:32.526Z,67.47
2018-01-18T10:45:32.483Z,67.57
2018-01-18T10:46:32.432Z,68.33
2018-01-18T10:47:32.388Z,68.33
2018-01-18T10:48:32.344Z,68.99
2018-01-18T10:49:32.300Z,69.56
2018-01-18T10:50:32.246Z,69.37
2018-01-18T10:51:32.201Z,69.37
2018-01-18T10:52:32.152Z,70.23
2018-01-18T10:53:32.120Z,70.79
2018-01-18T10:54:32.060Z,71.43
2018-01-18T10:55:32.058Z,70.79
2018-01-18T10:56:31.963Z,70.67
2018-01-18T10:57:31.922Z,71.23
2018-01-18T10:58:31.874Z,71.71
2018-01-18T10:59:31.827Z,71.33
2018-01-18T11:00:31.780Z,71.90
2018-01-18T11:01:31.730Z,72.19
2018-01-18T11:02:31.687Z,72.09
2018-01-18T11:03:31.639Z,72.19
2018-01-18T11:04:31.607Z,72.56
2018-01-18T11:05:31.616Z,72.66
2018-01-18T11:06:31.498Z,72.75
2018-01-18T11:07:31.499Z,73.04
2018-01-18T11:08:31.402Z,72.56
2018-01-18T11:09:31.359Z,73.23
2018-01-18T11:10:31.312Z,73.61
2018-01-18T11:11:31.279Z,74.37
2018-01-18T11:12:31.217Z,74.56
2018-01-18T11:13:31.170Z,74.27
2018-01-18T11:14:31.123Z,74.66
2018-01-18T11:15:31.075Z,73.80
2018-01-18T11:16:31.028Z,73.99
2018-01-18T11:17:30.980Z,74.47
2018-01-18T11:18:30.932Z,75.13
2018-01-18T11:19:30.890Z,74.47
2018-01-18T11:20:30.866Z,74.85
2018-01-18T11:21:30.792Z,74.56
2018-01-18T11:22:30.748Z,74.66
2018-01-18T11:23:30.696Z,75.04
2018-01-18T11:24:30.651Z,74.75
2018-01-18T11:25:30.607Z,75.04
2018-01-18T11:26:30.562Z,75.42
2018-01-18T11:27:30.531Z,75.70
2018-01-18T11:28:30.465Z,75.70
2018-01-18T11:29:30.416Z,75.32
2018-01-18T11:30:30.367Z,75.89
2018-01-18T11:31:30.322Z,75.70
2018-01-18T11:32:30.274Z,75.04
2018-01-18T11:33:30.234Z,75.23
2018-01-18T11:34:30.180Z,75.51
2018-01-18T11:35:30.137Z,75.42
2018-01-18T11:36:30.093Z,75.23
2018-01-18T11:37:30.039Z,75.23
2018-01-18T11:38:29.992Z,75.60
2018-01-18T11:39:29.948Z,75.42
2018-01-18T11:40:29.895Z,74.94
2018-01-18T11:41:29.848Z,74.85
2018-01-18T11:42:29.805Z,74.94
2018-01-18T11:43:29.755Z,74.47
2018-01-18T11:44:29.709Z,74.85
2018-01-18T11:45:29.666Z,74.85
2018-01-18T11:46:29.613Z,75.79
2018-01-18T11:47:29.567Z,76.75
2018-01-18T11:48:29.518Z,76.84
2018-01-18T11:49:29.474Z,77.31
2018-01-18T11:50:29.427Z,77.89
2018-01-18T11:51:29.425Z,78.89
2018-01-18T11:52:29.331Z,79.65
2018-01-18T11:53:29.283Z,79.55
2018-01-18T11:54:29.237Z,80.69
2018-01-18T11:55:29.192Z,81.65
2018-01-18T11:56:29.144Z,82.50
2018-01-18T11:57:29.094Z,82.03
2018-01-18T11:58:29.045Z,82.03
2018-01-18T11:59:29.006Z,82.88
2018-01-18T12:00:28.951Z,83.36
2018-01-18T12:01:28.910Z,84.40
2018-01-18T12:02:28.856Z,85.16
2018-01-18T12:03:28.812Z,85.72
2018-01-18T12:04:28.765Z,85.63
2018-01-18T12:05:28.715Z,86.11
2018-01-18T12:06:28.672Z,86.20
2018-01-18T12:07:28.622Z,86.68
2018-01-18T12:08:28.575Z,86.16
2018-01-18T12:09:28.524Z,85.53
2018-01-18T12:10:28.479Z,84.97
2018-01-18T12:11:28.438Z,85.72
2018-01-18T12:12:28.382Z,86.39
2018-01-18T12:13:28.341Z,85.63
2018-01-18T12:14:28.289Z,85.30
2018-01-18T12:15:28.243Z,84.49
2018-01-18T12:16:28.194Z,84.87
2018-01-18T12:17:28.147Z,85.40
2018-01-18T12:18:28.101Z,84.97
2018-01-18T12:19:28.054Z,84.49
2018-01-18T12:20:28.008Z,84.59
2018-01-18T12:21:27.959Z,84.59
2018-01-18T12:22:27.911Z,84.30
2018-01-18T12:23:27.867Z,84.49
2018-01-18T12:24:27.815Z,84.78
2018-01-18T12:25:27.767Z,84.87
2018-01-18T12:26:27.720Z,84.49
2018-01-18T12:27:27.672Z,83.73
2018-01-18T12:28:27.624Z,84.40
2018-01-18T12:29:27.575Z,84.59
2018-01-18T12:30:27.530Z,83.07
2018-01-18T12:31:27.479Z,82.97
2018-01-18T12:32:27.434Z,82.69
2018-01-18T12:33:27.387Z,82.50
2018-01-18T12:34:27.340Z,82.78
2018-01-18T12:35:27.303Z,82.12
2018-01-18T12:36:27.245Z,82.78
2018-01-18T12:37:27.270Z,82.50
2018-01-18T12:38:27.150Z,81.65
2018-01-18T12:39:27.099Z,81.74
2018-01-18T12:40:27.055Z,81.55
2018-01-18T12:41:27.005Z,80.22
2018-01-18T12:42:26.960Z,80.26
2018-01-18T12:43:26.911Z,79.97
2018-01-18T12:44:26.872Z,79.31
2018-01-18T12:45:26.819Z,79.31
2018-01-18T12:46:26.774Z,79.69
2018-01-18T12:47:26.723Z,80.45
2018-01-18T12:48:26.677Z,79.46
2018-01-18T12:49:26.629Z,79.84
2018-01-18T12:50:26.584Z,79.88
2018-01-18T12:51:26.532Z,79.94